sensor_id;sensor_type;location;lat;lon;timestamp;P1;durP1;ratioP1;P2;durP2;ratioP2
12328;SDS011;6230;52.390;10.256;2023-04-28T00:01:41;6.60;;;4.10;;
12328;SDS011;6230;52.390;10.256;2023-04-28T00:04:06;6.23;;;3.50;;
12328;SDS011;6230;52.390;10.256;2023-04-28T00:06:32;6.80;;;3.47;;
12328;SDS011;6230;52.390;10.256;2023-04-28T00:08:58;5.90;;;3.40;;
12328;SDS011;6230;52.390;10.256;2023-04-28T00:11:24;5.70;;;3.23;;
12328;SDS011;6230;52.390;10.256;2023-04-28T00:13:49;5.00;;;3.33;;
12328;SDS011;6230;52.390;10.256;2023-04-28T00:16:15;5.77;;;3.80;;
12328;SDS011;6230;52.390;10.256;2023-04-28T00:18:41;3.90;;;3.20;;
12328;SDS011;6230;52.390;10.256;2023-04-28T00:21:06;8.33;;;3.73;;
12328;SDS011;6230;52.390;10.256;2023-04-28T00:23:32;4.97;;;3.47;;
12328;SDS011;6230;52.390;10.256;2023-04-28T00:25:58;8.00;;;4.10;;
12328;SDS011;6230;52.390;10.256;2023-04-28T00:28:23;7.87;;;3.90;;
12328;SDS011;6230;52.390;10.256;2023-04-28T00:30:49;4.97;;;3.30;;
12328;SDS011;6230;52.390;10.256;2023-04-28T00:33:14;4.17;;;3.00;;
12328;SDS011;6230;52.390;10.256;2023-04-28T00:35:40;5.87;;;3.07;;
12328;SDS011;6230;52.390;10.256;2023-04-28T00:38:06;5.07;;;3.73;;
12328;SDS011;6230;52.390;10.256;2023-04-28T00:40:35;5.73;;;3.27;;
12328;SDS011;6230;52.390;10.256;2023-04-28T00:43:02;4.93;;;3.70;;
12328;SDS011;6230;52.390;10.256;2023-04-28T00:45:28;7.80;;;4.10;;
12328;SDS011;6230;52.390;10.256;2023-04-28T00:47:55;6.80;;;3.70;;
12328;SDS011;6230;52.390;10.256;2023-04-28T00:50:24;4.67;;;3.47;;
12328;SDS011;6230;52.390;10.256;2023-04-28T00:52:50;5.97;;;3.57;;
12328;SDS011;6230;52.390;10.256;2023-04-28T00:55:16;5.57;;;3.40;;
12328;SDS011;6230;52.390;10.256;2023-04-28T00:57:42;7.03;;;4.50;;
12328;SDS011;6230;52.390;10.256;2023-04-28T01:00:08;9.03;;;3.77;;
12328;SDS011;6230;52.390;10.256;2023-04-28T01:02:34;7.60;;;3.67;;
12328;SDS011;6230;52.390;10.256;2023-04-28T01:05:00;10.67;;;4.10;;
12328;SDS011;6230;52.390;10.256;2023-04-28T01:07:27;7.07;;;3.50;;
12328;SDS011;6230;52.390;10.256;2023-04-28T01:09:53;5.07;;;3.70;;
12328;SDS011;6230;52.390;10.256;2023-04-28T01:12:19;6.30;;;3.70;;
12328;SDS011;6230;52.390;10.256;2023-04-28T01:14:45;7.00;;;4.27;;
12328;SDS011;6230;52.390;10.256;2023-04-28T01:17:10;6.27;;;4.10;;
12328;SDS011;6230;52.390;10.256;2023-04-28T01:19:36;4.83;;;3.50;;
12328;SDS011;6230;52.390;10.256;2023-04-28T01:22:02;7.43;;;4.03;;
12328;SDS011;6230;52.390;10.256;2023-04-28T01:24:28;6.20;;;4.03;;
12328;SDS011;6230;52.390;10.256;2023-04-28T01:26:54;8.00;;;3.90;;
12328;SDS011;6230;52.390;10.256;2023-04-28T01:29:20;5.63;;;3.77;;
12328;SDS011;6230;52.390;10.256;2023-04-28T01:31:45;5.13;;;4.00;;
12328;SDS011;6230;52.390;10.256;2023-04-28T01:34:11;7.63;;;4.20;;
12328;SDS011;6230;52.390;10.256;2023-04-28T01:36:36;7.93;;;4.67;;
12328;SDS011;6230;52.390;10.256;2023-04-28T01:39:02;7.03;;;4.40;;
12328;SDS011;6230;52.390;10.256;2023-04-28T01:41:28;5.93;;;3.87;;
12328;SDS011;6230;52.390;10.256;2023-04-28T01:43:54;8.07;;;4.50;;
12328;SDS011;6230;52.390;10.256;2023-04-28T01:46:19;6.57;;;4.10;;
12328;SDS011;6230;52.390;10.256;2023-04-28T01:48:45;6.53;;;4.10;;
12328;SDS011;6230;52.390;10.256;2023-04-28T01:51:11;6.60;;;4.20;;
12328;SDS011;6230;52.390;10.256;2023-04-28T01:53:37;5.47;;;4.47;;
12328;SDS011;6230;52.390;10.256;2023-04-28T01:56:02;7.03;;;4.30;;
12328;SDS011;6230;52.390;10.256;2023-04-28T01:58:28;6.57;;;4.40;;
12328;SDS011;6230;52.390;10.256;2023-04-28T02:00:54;5.97;;;4.70;;
12328;SDS011;6230;52.390;10.256;2023-04-28T02:03:19;6.47;;;4.23;;
12328;SDS011;6230;52.390;10.256;2023-04-28T02:05:45;6.40;;;3.97;;
12328;SDS011;6230;52.390;10.256;2023-04-28T02:08:10;7.13;;;4.30;;
12328;SDS011;6230;52.390;10.256;2023-04-28T02:10:36;6.70;;;4.00;;
12328;SDS011;6230;52.390;10.256;2023-04-28T02:13:01;6.20;;;4.40;;
12328;SDS011;6230;52.390;10.256;2023-04-28T02:15:27;5.03;;;4.17;;
12328;SDS011;6230;52.390;10.256;2023-04-28T02:17:52;5.43;;;4.17;;
12328;SDS011;6230;52.390;10.256;2023-04-28T02:20:18;5.63;;;4.20;;
12328;SDS011;6230;52.390;10.256;2023-04-28T02:22:44;6.57;;;4.37;;
12328;SDS011;6230;52.390;10.256;2023-04-28T02:25:09;7.13;;;4.33;;
12328;SDS011;6230;52.390;10.256;2023-04-28T02:27:35;6.23;;;4.27;;
12328;SDS011;6230;52.390;10.256;2023-04-28T02:30:01;5.93;;;4.10;;
12328;SDS011;6230;52.390;10.256;2023-04-28T02:32:30;9.33;;;4.93;;
12328;SDS011;6230;52.390;10.256;2023-04-28T02:34:56;5.73;;;4.00;;
12328;SDS011;6230;52.390;10.256;2023-04-28T02:37:21;4.23;;;3.83;;
12328;SDS011;6230;52.390;10.256;2023-04-28T02:39:47;7.10;;;4.53;;
12328;SDS011;6230;52.390;10.256;2023-04-28T02:42:13;5.57;;;3.67;;
12328;SDS011;6230;52.390;10.256;2023-04-28T02:44:38;6.63;;;4.20;;
12328;SDS011;6230;52.390;10.256;2023-04-28T02:47:04;5.07;;;4.00;;
12328;SDS011;6230;52.390;10.256;2023-04-28T02:49:30;5.60;;;4.50;;
12328;SDS011;6230;52.390;10.256;2023-04-28T02:51:55;7.27;;;4.57;;
12328;SDS011;6230;52.390;10.256;2023-04-28T02:54:21;5.60;;;4.10;;
12328;SDS011;6230;52.390;10.256;2023-04-28T02:56:52;5.40;;;4.33;;
12328;SDS011;6230;52.390;10.256;2023-04-28T02:59:22;7.33;;;4.47;;
12328;SDS011;6230;52.390;10.256;2023-04-28T03:01:48;5.37;;;3.80;;
12328;SDS011;6230;52.390;10.256;2023-04-28T03:04:15;5.63;;;3.67;;
12328;SDS011;6230;52.390;10.256;2023-04-28T03:06:41;5.93;;;3.90;;
12328;SDS011;6230;52.390;10.256;2023-04-28T03:09:07;8.00;;;4.37;;
12328;SDS011;6230;52.390;10.256;2023-04-28T03:11:33;4.87;;;3.33;;
12328;SDS011;6230;52.390;10.256;2023-04-28T03:13:59;5.13;;;4.30;;
12328;SDS011;6230;52.390;10.256;2023-04-28T03:16:25;7.37;;;3.60;;
12328;SDS011;6230;52.390;10.256;2023-04-28T03:18:51;6.23;;;3.90;;
12328;SDS011;6230;52.390;10.256;2023-04-28T03:21:17;6.77;;;3.90;;
12328;SDS011;6230;52.390;10.256;2023-04-28T03:23:42;7.37;;;3.87;;
12328;SDS011;6230;52.390;10.256;2023-04-28T03:26:08;7.40;;;3.87;;
12328;SDS011;6230;52.390;10.256;2023-04-28T03:28:33;7.90;;;3.90;;
12328;SDS011;6230;52.390;10.256;2023-04-28T03:30:59;5.87;;;3.90;;
12328;SDS011;6230;52.390;10.256;2023-04-28T03:33:24;5.27;;;4.23;;
12328;SDS011;6230;52.390;10.256;2023-04-28T03:35:50;8.90;;;3.80;;
12328;SDS011;6230;52.390;10.256;2023-04-28T03:38:17;4.00;;;3.60;;
12328;SDS011;6230;52.390;10.256;2023-04-28T03:40:43;5.00;;;4.00;;
12328;SDS011;6230;52.390;10.256;2023-04-28T03:43:08;8.00;;;3.80;;
12328;SDS011;6230;52.390;10.256;2023-04-28T03:45:34;5.37;;;3.60;;
12328;SDS011;6230;52.390;10.256;2023-04-28T03:47:59;6.83;;;3.53;;
12328;SDS011;6230;52.390;10.256;2023-04-28T03:50:25;4.73;;;3.93;;
12328;SDS011;6230;52.390;10.256;2023-04-28T03:52:50;6.00;;;3.87;;
12328;SDS011;6230;52.390;10.256;2023-04-28T03:55:16;6.87;;;3.67;;
12328;SDS011;6230;52.390;10.256;2023-04-28T03:57:41;7.90;;;3.93;;
12328;SDS011;6230;52.390;10.256;2023-04-28T04:00:07;6.97;;;3.67;;
12328;SDS011;6230;52.390;10.256;2023-04-28T04:02:34;4.80;;;3.83;;
12328;SDS011;6230;52.390;10.256;2023-04-28T04:04:59;5.50;;;3.90;;
12328;SDS011;6230;52.390;10.256;2023-04-28T04:07:25;6.47;;;4.03;;
12328;SDS011;6230;52.390;10.256;2023-04-28T04:09:50;7.07;;;3.87;;
12328;SDS011;6230;52.390;10.256;2023-04-28T04:12:16;6.60;;;3.77;;
12328;SDS011;6230;52.390;10.256;2023-04-28T04:14:42;5.77;;;3.70;;
12328;SDS011;6230;52.390;10.256;2023-04-28T04:17:08;6.03;;;3.90;;
12328;SDS011;6230;52.390;10.256;2023-04-28T04:19:33;6.90;;;4.03;;
12328;SDS011;6230;52.390;10.256;2023-04-28T04:21:59;7.47;;;4.13;;
12328;SDS011;6230;52.390;10.256;2023-04-28T04:24:24;10.30;;;4.97;;
12328;SDS011;6230;52.390;10.256;2023-04-28T04:26:50;7.17;;;4.20;;
12328;SDS011;6230;52.390;10.256;2023-04-28T04:29:16;5.50;;;4.30;;
12328;SDS011;6230;52.390;10.256;2023-04-28T04:31:41;5.93;;;4.00;;
12328;SDS011;6230;52.390;10.256;2023-04-28T04:34:09;7.03;;;4.17;;
12328;SDS011;6230;52.390;10.256;2023-04-28T04:36:35;5.37;;;3.97;;
12328;SDS011;6230;52.390;10.256;2023-04-28T04:39:00;5.40;;;3.73;;
12328;SDS011;6230;52.390;10.256;2023-04-28T04:41:26;5.33;;;4.10;;
12328;SDS011;6230;52.390;10.256;2023-04-28T04:43:52;4.93;;;3.93;;
12328;SDS011;6230;52.390;10.256;2023-04-28T04:46:17;7.13;;;4.27;;
12328;SDS011;6230;52.390;10.256;2023-04-28T04:48:43;7.13;;;4.00;;
12328;SDS011;6230;52.390;10.256;2023-04-28T04:51:09;7.17;;;4.43;;
12328;SDS011;6230;52.390;10.256;2023-04-28T04:53:35;8.50;;;4.80;;
12328;SDS011;6230;52.390;10.256;2023-04-28T04:56:01;9.17;;;5.30;;
12328;SDS011;6230;52.390;10.256;2023-04-28T04:58:26;9.40;;;6.10;;
12328;SDS011;6230;52.390;10.256;2023-04-28T05:00:52;5.23;;;4.73;;
12328;SDS011;6230;52.390;10.256;2023-04-28T05:03:19;7.67;;;4.90;;
12328;SDS011;6230;52.390;10.256;2023-04-28T05:05:44;6.90;;;5.17;;
12328;SDS011;6230;52.390;10.256;2023-04-28T05:08:10;7.07;;;4.87;;
12328;SDS011;6230;52.390;10.256;2023-04-28T05:10:36;13.00;;;6.93;;
12328;SDS011;6230;52.390;10.256;2023-04-28T05:13:01;8.93;;;5.67;;
12328;SDS011;6230;52.390;10.256;2023-04-28T05:15:27;6.57;;;5.53;;
12328;SDS011;6230;52.390;10.256;2023-04-28T05:17:53;9.43;;;7.13;;
12328;SDS011;6230;52.390;10.256;2023-04-28T05:20:19;11.50;;;7.67;;
12328;SDS011;6230;52.390;10.256;2023-04-28T05:22:44;8.03;;;6.40;;
12328;SDS011;6230;52.390;10.256;2023-04-28T05:25:10;8.07;;;5.87;;
12328;SDS011;6230;52.390;10.256;2023-04-28T05:27:36;6.17;;;5.40;;
12328;SDS011;6230;52.390;10.256;2023-04-28T05:30:03;8.93;;;5.23;;
12328;SDS011;6230;52.390;10.256;2023-04-28T05:32:30;7.63;;;5.93;;
12328;SDS011;6230;52.390;10.256;2023-04-28T05:34:55;7.17;;;6.03;;
12328;SDS011;6230;52.390;10.256;2023-04-28T05:37:21;8.53;;;6.30;;
12328;SDS011;6230;52.390;10.256;2023-04-28T05:39:47;9.17;;;6.47;;
12328;SDS011;6230;52.390;10.256;2023-04-28T05:42:12;9.33;;;5.80;;
12328;SDS011;6230;52.390;10.256;2023-04-28T05:44:38;6.80;;;5.73;;
12328;SDS011;6230;52.390;10.256;2023-04-28T05:47:03;7.17;;;5.70;;
12328;SDS011;6230;52.390;10.256;2023-04-28T05:49:29;10.57;;;5.83;;
12328;SDS011;6230;52.390;10.256;2023-04-28T05:51:54;9.27;;;5.60;;
12328;SDS011;6230;52.390;10.256;2023-04-28T05:54:20;10.43;;;5.77;;
12328;SDS011;6230;52.390;10.256;2023-04-28T05:56:45;10.27;;;6.10;;
12328;SDS011;6230;52.390;10.256;2023-04-28T05:59:11;10.57;;;6.43;;
12328;SDS011;6230;52.390;10.256;2023-04-28T06:01:36;9.13;;;6.20;;
12328;SDS011;6230;52.390;10.256;2023-04-28T06:04:02;9.97;;;6.57;;
12328;SDS011;6230;52.390;10.256;2023-04-28T06:06:28;9.50;;;6.43;;
12328;SDS011;6230;52.390;10.256;2023-04-28T06:08:54;8.30;;;6.00;;
12328;SDS011;6230;52.390;10.256;2023-04-28T06:11:19;12.03;;;6.43;;
12328;SDS011;6230;52.390;10.256;2023-04-28T06:13:46;8.20;;;5.83;;
12328;SDS011;6230;52.390;10.256;2023-04-28T06:16:15;11.87;;;6.83;;
12328;SDS011;6230;52.390;10.256;2023-04-28T06:18:42;9.43;;;6.63;;
12328;SDS011;6230;52.390;10.256;2023-04-28T06:21:07;9.20;;;6.33;;
12328;SDS011;6230;52.390;10.256;2023-04-28T06:23:33;9.53;;;6.90;;
12328;SDS011;6230;52.390;10.256;2023-04-28T06:25:59;13.40;;;7.93;;
12328;SDS011;6230;52.390;10.256;2023-04-28T06:28:25;11.90;;;8.13;;
12328;SDS011;6230;52.390;10.256;2023-04-28T06:30:50;15.77;;;9.13;;
12328;SDS011;6230;52.390;10.256;2023-04-28T06:33:16;12.60;;;8.80;;
12328;SDS011;6230;52.390;10.256;2023-04-28T06:35:41;13.20;;;8.37;;
12328;SDS011;6230;52.390;10.256;2023-04-28T06:38:07;13.03;;;7.83;;
12328;SDS011;6230;52.390;10.256;2023-04-28T06:40:33;17.33;;;12.40;;
12328;SDS011;6230;52.390;10.256;2023-04-28T06:42:58;16.10;;;10.40;;
12328;SDS011;6230;52.390;10.256;2023-04-28T06:45:24;10.67;;;8.43;;
12328;SDS011;6230;52.390;10.256;2023-04-28T06:47:49;16.90;;;8.93;;
12328;SDS011;6230;52.390;10.256;2023-04-28T06:50:15;11.13;;;8.67;;
12328;SDS011;6230;52.390;10.256;2023-04-28T06:52:41;11.13;;;8.07;;
12328;SDS011;6230;52.390;10.256;2023-04-28T06:55:07;13.10;;;8.67;;
12328;SDS011;6230;52.390;10.256;2023-04-28T06:57:33;13.40;;;8.83;;
12328;SDS011;6230;52.390;10.256;2023-04-28T06:59:59;12.30;;;9.03;;
12328;SDS011;6230;52.390;10.256;2023-04-28T07:02:25;15.47;;;13.93;;
12328;SDS011;6230;52.390;10.256;2023-04-28T07:04:51;14.67;;;9.13;;
12328;SDS011;6230;52.390;10.256;2023-04-28T07:07:16;14.10;;;8.77;;
12328;SDS011;6230;52.390;10.256;2023-04-28T07:09:42;15.80;;;9.30;;
12328;SDS011;6230;52.390;10.256;2023-04-28T07:12:08;15.73;;;8.77;;
12328;SDS011;6230;52.390;10.256;2023-04-28T07:14:33;11.90;;;8.97;;
12328;SDS011;6230;52.390;10.256;2023-04-28T07:16:59;12.83;;;9.57;;
12328;SDS011;6230;52.390;10.256;2023-04-28T07:19:24;13.07;;;8.50;;
12328;SDS011;6230;52.390;10.256;2023-04-28T07:21:50;11.33;;;9.20;;
12328;SDS011;6230;52.390;10.256;2023-04-28T07:24:16;11.53;;;8.47;;
12328;SDS011;6230;52.390;10.256;2023-04-28T07:26:41;13.97;;;8.23;;
12328;SDS011;6230;52.390;10.256;2023-04-28T07:29:07;14.17;;;11.17;;
12328;SDS011;6230;52.390;10.256;2023-04-28T07:31:37;10.70;;;8.50;;
12328;SDS011;6230;52.390;10.256;2023-04-28T07:34:03;10.53;;;8.03;;
12328;SDS011;6230;52.390;10.256;2023-04-28T07:36:28;14.27;;;8.07;;
12328;SDS011;6230;52.390;10.256;2023-04-28T07:38:55;14.63;;;13.17;;
12328;SDS011;6230;52.390;10.256;2023-04-28T07:41:20;11.97;;;8.70;;
12328;SDS011;6230;52.390;10.256;2023-04-28T07:43:46;12.30;;;8.73;;
12328;SDS011;6230;52.390;10.256;2023-04-28T07:46:12;12.63;;;8.47;;
12328;SDS011;6230;52.390;10.256;2023-04-28T07:48:37;12.50;;;8.70;;
12328;SDS011;6230;52.390;10.256;2023-04-28T07:51:03;11.37;;;8.07;;
12328;SDS011;6230;52.390;10.256;2023-04-28T07:53:29;15.80;;;8.83;;
12328;SDS011;6230;52.390;10.256;2023-04-28T07:55:54;12.97;;;8.57;;
12328;SDS011;6230;52.390;10.256;2023-04-28T07:58:20;13.47;;;8.90;;
12328;SDS011;6230;52.390;10.256;2023-04-28T08:00:46;13.57;;;7.80;;
12328;SDS011;6230;52.390;10.256;2023-04-28T08:03:11;11.83;;;8.60;;
12328;SDS011;6230;52.390;10.256;2023-04-28T08:05:37;12.13;;;8.50;;
12328;SDS011;6230;52.390;10.256;2023-04-28T08:08:03;13.17;;;8.33;;
12328;SDS011;6230;52.390;10.256;2023-04-28T08:10:29;12.73;;;8.83;;
12328;SDS011;6230;52.390;10.256;2023-04-28T08:12:55;10.63;;;8.03;;
12328;SDS011;6230;52.390;10.256;2023-04-28T08:15:20;14.37;;;9.13;;
12328;SDS011;6230;52.390;10.256;2023-04-28T08:17:46;16.67;;;9.70;;
12328;SDS011;6230;52.390;10.256;2023-04-28T08:20:12;13.83;;;9.03;;
12328;SDS011;6230;52.390;10.256;2023-04-28T08:22:39;11.13;;;8.63;;
12328;SDS011;6230;52.390;10.256;2023-04-28T08:25:05;14.33;;;8.50;;
12328;SDS011;6230;52.390;10.256;2023-04-28T08:27:32;12.30;;;8.73;;
12328;SDS011;6230;52.390;10.256;2023-04-28T08:29:58;13.20;;;8.93;;
12328;SDS011;6230;52.390;10.256;2023-04-28T08:32:24;10.10;;;8.27;;
12328;SDS011;6230;52.390;10.256;2023-04-28T08:34:49;12.37;;;8.50;;
12328;SDS011;6230;52.390;10.256;2023-04-28T08:37:15;11.13;;;8.10;;
12328;SDS011;6230;52.390;10.256;2023-04-28T08:39:40;12.07;;;8.40;;
12328;SDS011;6230;52.390;10.256;2023-04-28T08:42:06;12.73;;;8.40;;
12328;SDS011;6230;52.390;10.256;2023-04-28T08:44:35;10.47;;;7.80;;
12328;SDS011;6230;52.390;10.256;2023-04-28T08:47:03;13.33;;;8.27;;
12328;SDS011;6230;52.390;10.256;2023-04-28T08:49:35;13.73;;;8.13;;
12328;SDS011;6230;52.390;10.256;2023-04-28T08:52:02;12.98;;;8.90;;
12328;SDS011;6230;52.390;10.256;2023-04-28T08:54:34;13.73;;;8.40;;
12328;SDS011;6230;52.390;10.256;2023-04-28T08:57:01;12.90;;;8.43;;
12328;SDS011;6230;52.390;10.256;2023-04-28T08:59:29;11.53;;;8.03;;
12328;SDS011;6230;52.390;10.256;2023-04-28T09:01:55;12.40;;;8.53;;
12328;SDS011;6230;52.390;10.256;2023-04-28T09:04:21;10.70;;;8.20;;
12328;SDS011;6230;52.390;10.256;2023-04-28T09:06:46;12.15;;;8.35;;
12328;SDS011;6230;52.390;10.256;2023-04-28T09:09:22;12.48;;;8.38;;
12328;SDS011;6230;52.390;10.256;2023-04-28T09:11:59;13.30;;;7.77;;
12328;SDS011;6230;52.390;10.256;2023-04-28T09:14:26;13.67;;;8.50;;
12328;SDS011;6230;52.390;10.256;2023-04-28T09:16:53;12.32;;;8.85;;
12328;SDS011;6230;52.390;10.256;2023-04-28T09:19:18;11.02;;;8.57;;
12328;SDS011;6230;52.390;10.256;2023-04-28T09:21:45;11.30;;;8.43;;
12328;SDS011;6230;52.390;10.256;2023-04-28T09:24:11;11.57;;;8.37;;
12328;SDS011;6230;52.390;10.256;2023-04-28T09:26:50;13.87;;;8.47;;
12328;SDS011;6230;52.390;10.256;2023-04-28T09:29:15;13.70;;;10.30;;
12328;SDS011;6230;52.390;10.256;2023-04-28T09:31:41;9.57;;;8.00;;
12328;SDS011;6230;52.390;10.256;2023-04-28T09:34:07;10.83;;;8.00;;
12328;SDS011;6230;52.390;10.256;2023-04-28T09:36:33;12.35;;;7.80;;
12328;SDS011;6230;52.390;10.256;2023-04-28T09:38:59;12.38;;;9.13;;
12328;SDS011;6230;52.390;10.256;2023-04-28T09:41:43;9.57;;;8.30;;
12328;SDS011;6230;52.390;10.256;2023-04-28T09:44:10;12.23;;;7.53;;
12328;SDS011;6230;52.390;10.256;2023-04-28T09:46:48;10.35;;;8.05;;
12328;SDS011;6230;52.390;10.256;2023-04-28T09:49:13;14.97;;;9.63;;
12328;SDS011;6230;52.390;10.256;2023-04-28T09:51:39;44.22;;;22.70;;
12328;SDS011;6230;52.390;10.256;2023-04-28T09:54:05;23.17;;;12.27;;
12328;SDS011;6230;52.390;10.256;2023-04-28T09:56:32;18.83;;;12.52;;
12328;SDS011;6230;52.390;10.256;2023-04-28T09:59:02;17.55;;;13.07;;
12328;SDS011;6230;52.390;10.256;2023-04-28T10:01:31;25.05;;;13.77;;
12328;SDS011;6230;52.390;10.256;2023-04-28T10:04:01;26.58;;;15.68;;
12328;SDS011;6230;52.390;10.256;2023-04-28T10:06:28;12.02;;;7.60;;
12328;SDS011;6230;52.390;10.256;2023-04-28T10:08:54;13.52;;;9.13;;
12328;SDS011;6230;52.390;10.256;2023-04-28T10:11:23;10.93;;;7.70;;
12328;SDS011;6230;52.390;10.256;2023-04-28T10:13:49;13.20;;;9.23;;
12328;SDS011;6230;52.390;10.256;2023-04-28T10:16:17;12.07;;;8.07;;
12328;SDS011;6230;52.390;10.256;2023-04-28T10:18:44;10.55;;;8.32;;
12328;SDS011;6230;52.390;10.256;2023-04-28T10:21:10;18.05;;;11.75;;
12328;SDS011;6230;52.390;10.256;2023-04-28T10:29:22;12.60;;;7.63;;
12328;SDS011;6230;52.390;10.256;2023-04-28T10:34:49;15.95;;;10.43;;
12328;SDS011;6230;52.390;10.256;2023-04-28T10:37:15;13.98;;;9.32;;
12328;SDS011;6230;52.390;10.256;2023-04-28T10:42:55;12.32;;;8.80;;
12328;SDS011;6230;52.390;10.256;2023-04-28T10:48:21;15.18;;;11.23;;
12328;SDS011;6230;52.390;10.256;2023-04-28T10:58:53;10.70;;;7.93;;
12328;SDS011;6230;52.390;10.256;2023-04-28T11:03:55;14.35;;;9.23;;
12328;SDS011;6230;52.390;10.256;2023-04-28T11:11:38;12.25;;;8.10;;
12328;SDS011;6230;52.390;10.256;2023-04-28T11:16:52;12.18;;;8.25;;
12328;SDS011;6230;52.390;10.256;2023-04-28T11:19:25;12.57;;;8.67;;
12328;SDS011;6230;52.390;10.256;2023-04-28T11:21:53;16.90;;;9.63;;
12328;SDS011;6230;52.390;10.256;2023-04-28T11:24:23;15.23;;;10.45;;
12328;SDS011;6230;52.390;10.256;2023-04-28T11:26:49;12.55;;;8.88;;
12328;SDS011;6230;52.390;10.256;2023-04-28T11:29:16;12.38;;;9.10;;
12328;SDS011;6230;52.390;10.256;2023-04-28T11:31:48;14.20;;;9.35;;
12328;SDS011;6230;52.390;10.256;2023-04-28T11:34:18;15.98;;;10.18;;
12328;SDS011;6230;52.390;10.256;2023-04-28T11:36:45;15.45;;;11.80;;
12328;SDS011;6230;52.390;10.256;2023-04-28T11:39:11;21.45;;;14.38;;
12328;SDS011;6230;52.390;10.256;2023-04-28T11:41:38;18.20;;;12.52;;
12328;SDS011;6230;52.390;10.256;2023-04-28T11:44:12;12.75;;;11.23;;
12328;SDS011;6230;52.390;10.256;2023-04-28T11:49:15;13.95;;;9.95;;
12328;SDS011;6230;52.390;10.256;2023-04-28T11:51:42;14.50;;;10.60;;
12328;SDS011;6230;52.390;10.256;2023-04-28T11:54:10;20.20;;;17.02;;
12328;SDS011;6230;52.390;10.256;2023-04-28T11:56:38;14.38;;;11.35;;
12328;SDS011;6230;52.390;10.256;2023-04-28T11:59:09;15.95;;;11.57;;
12328;SDS011;6230;52.390;10.256;2023-04-28T12:01:47;11.73;;;9.98;;
12328;SDS011;6230;52.390;10.256;2023-04-28T12:04:28;12.45;;;10.82;;
12328;SDS011;6230;52.390;10.256;2023-04-28T12:06:57;15.82;;;9.90;;
12328;SDS011;6230;52.390;10.256;2023-04-28T12:09:23;13.95;;;11.32;;
12328;SDS011;6230;52.390;10.256;2023-04-28T12:11:57;13.93;;;10.95;;
12328;SDS011;6230;52.390;10.256;2023-04-28T12:14:24;14.35;;;10.27;;
12328;SDS011;6230;52.390;10.256;2023-04-28T12:16:49;14.18;;;10.63;;
12328;SDS011;6230;52.390;10.256;2023-04-28T12:19:16;13.48;;;10.32;;
12328;SDS011;6230;52.390;10.256;2023-04-28T12:21:43;13.70;;;10.93;;
12328;SDS011;6230;52.390;10.256;2023-04-28T12:24:26;13.23;;;10.65;;
12328;SDS011;6230;52.390;10.256;2023-04-28T12:26:52;12.98;;;11.13;;
12328;SDS011;6230;52.390;10.256;2023-04-28T12:29:33;11.98;;;10.32;;
12328;SDS011;6230;52.390;10.256;2023-04-28T12:32:07;13.95;;;11.18;;
12328;SDS011;6230;52.390;10.256;2023-04-28T12:34:34;15.18;;;11.30;;
12328;SDS011;6230;52.390;10.256;2023-04-28T12:37:03;15.98;;;11.63;;
12328;SDS011;6230;52.390;10.256;2023-04-28T12:39:29;13.18;;;11.15;;
12328;SDS011;6230;52.390;10.256;2023-04-28T12:41:55;12.45;;;11.18;;
12328;SDS011;6230;52.390;10.256;2023-04-28T12:44:23;13.38;;;11.32;;
12328;SDS011;6230;52.390;10.256;2023-04-28T12:46:49;13.88;;;11.02;;
12328;SDS011;6230;52.390;10.256;2023-04-28T12:49:15;17.05;;;10.88;;
12328;SDS011;6230;52.390;10.256;2023-04-28T12:51:41;18.50;;;10.60;;
12328;SDS011;6230;52.390;10.256;2023-04-28T12:54:09;12.85;;;11.07;;
12328;SDS011;6230;52.390;10.256;2023-04-28T12:56:35;14.55;;;10.50;;
12328;SDS011;6230;52.390;10.256;2023-04-28T12:59:00;13.20;;;11.27;;
12328;SDS011;6230;52.390;10.256;2023-04-28T13:01:29;13.43;;;10.70;;
12328;SDS011;6230;52.390;10.256;2023-04-28T13:03:55;16.85;;;11.32;;
12328;SDS011;6230;52.390;10.256;2023-04-28T13:06:21;18.40;;;14.95;;
12328;SDS011;6230;52.390;10.256;2023-04-28T13:08:46;21.38;;;19.20;;
12328;SDS011;6230;52.390;10.256;2023-04-28T13:11:12;16.75;;;12.63;;
12328;SDS011;6230;52.390;10.256;2023-04-28T13:13:41;18.90;;;12.77;;
12328;SDS011;6230;52.390;10.256;2023-04-28T13:16:09;13.32;;;11.60;;
12328;SDS011;6230;52.390;10.256;2023-04-28T13:18:34;16.73;;;11.82;;
12328;SDS011;6230;52.390;10.256;2023-04-28T13:21:00;15.10;;;12.50;;
12328;SDS011;6230;52.390;10.256;2023-04-28T13:23:26;14.48;;;12.05;;
12328;SDS011;6230;52.390;10.256;2023-04-28T13:25:51;17.60;;;13.27;;
12328;SDS011;6230;52.390;10.256;2023-04-28T13:28:17;13.52;;;11.73;;
12328;SDS011;6230;52.390;10.256;2023-04-28T13:30:42;18.15;;;15.27;;
12328;SDS011;6230;52.390;10.256;2023-04-28T13:33:08;15.55;;;12.07;;
12328;SDS011;6230;52.390;10.256;2023-04-28T13:35:33;17.27;;;12.63;;
12328;SDS011;6230;52.390;10.256;2023-04-28T13:37:59;17.55;;;12.50;;
12328;SDS011;6230;52.390;10.256;2023-04-28T13:40:28;14.32;;;10.85;;
12328;SDS011;6230;52.390;10.256;2023-04-28T13:42:54;13.75;;;11.60;;
12328;SDS011;6230;52.390;10.256;2023-04-28T13:45:19;17.70;;;12.18;;
12328;SDS011;6230;52.390;10.256;2023-04-28T13:47:45;16.65;;;13.13;;
12328;SDS011;6230;52.390;10.256;2023-04-28T13:50:12;16.77;;;13.52;;
12328;SDS011;6230;52.390;10.256;2023-04-28T13:52:37;17.92;;;11.45;;
12328;SDS011;6230;52.390;10.256;2023-04-28T13:55:03;31.08;;;28.23;;
12328;SDS011;6230;52.390;10.256;2023-04-28T13:57:29;12.35;;;11.15;;
12328;SDS011;6230;52.390;10.256;2023-04-28T13:59:54;14.00;;;12.48;;
12328;SDS011;6230;52.390;10.256;2023-04-28T14:02:20;18.17;;;12.25;;
12328;SDS011;6230;52.390;10.256;2023-04-28T14:04:45;15.00;;;13.40;;
12328;SDS011;6230;52.390;10.256;2023-04-28T14:07:15;13.95;;;12.45;;
12328;SDS011;6230;52.390;10.256;2023-04-28T14:09:41;16.02;;;12.90;;
12328;SDS011;6230;52.390;10.256;2023-04-28T14:12:07;14.40;;;12.38;;
12328;SDS011;6230;52.390;10.256;2023-04-28T14:14:33;16.08;;;13.55;;
12328;SDS011;6230;52.390;10.256;2023-04-28T14:16:58;16.00;;;14.30;;
12328;SDS011;6230;52.390;10.256;2023-04-28T14:19:24;14.95;;;13.43;;
12328;SDS011;6230;52.390;10.256;2023-04-28T14:21:51;18.20;;;13.18;;
12328;SDS011;6230;52.390;10.256;2023-04-28T14:24:17;15.55;;;13.68;;
12328;SDS011;6230;52.390;10.256;2023-04-28T14:26:44;15.10;;;13.60;;
12328;SDS011;6230;52.390;10.256;2023-04-28T14:29:10;17.08;;;13.30;;
12328;SDS011;6230;52.390;10.256;2023-04-28T14:31:36;16.77;;;14.23;;
12328;SDS011;6230;52.390;10.256;2023-04-28T14:34:02;17.95;;;14.02;;
12328;SDS011;6230;52.390;10.256;2023-04-28T14:36:29;17.45;;;14.50;;
12328;SDS011;6230;52.390;10.256;2023-04-28T14:38:57;27.30;;;17.60;;
12328;SDS011;6230;52.390;10.256;2023-04-28T14:41:23;17.00;;;13.38;;
12328;SDS011;6230;52.390;10.256;2023-04-28T14:43:49;15.40;;;13.15;;
12328;SDS011;6230;52.390;10.256;2023-04-28T14:46:15;15.07;;;13.48;;
12328;SDS011;6230;52.390;10.256;2023-04-28T14:48:47;15.77;;;12.75;;
12328;SDS011;6230;52.390;10.256;2023-04-28T14:51:16;19.20;;;14.43;;
12328;SDS011;6230;52.390;10.256;2023-04-28T14:53:42;22.92;;;16.98;;
12328;SDS011;6230;52.390;10.256;2023-04-28T14:56:08;15.98;;;13.90;;
12328;SDS011;6230;52.390;10.256;2023-04-28T14:58:33;14.18;;;12.77;;
12328;SDS011;6230;52.390;10.256;2023-04-28T15:00:59;23.02;;;16.73;;
12328;SDS011;6230;52.390;10.256;2023-04-28T15:03:26;20.38;;;14.85;;
12328;SDS011;6230;52.390;10.256;2023-04-28T15:05:51;16.52;;;13.45;;
12328;SDS011;6230;52.390;10.256;2023-04-28T15:08:17;16.48;;;14.00;;